sensor_id;sensor_type;location;lat;lon;timestamp;temperature;humidity
43862;DHT22;29510;52.140;5.034;2022-10-16T00:09:32;13.50;99.90
43862;DHT22;29510;52.140;5.034;2022-10-16T00:19:33;13.50;99.90
43862;DHT22;29510;52.140;5.034;2022-10-16T00:29:34;13.40;99.90
43862;DHT22;29510;52.140;5.034;2022-10-16T00:39:35;13.40;99.90
43862;DHT22;29510;52.140;5.034;2022-10-16T00:49:36;13.50;99.90
43862;DHT22;29510;52.140;5.034;2022-10-16T00:59:39;13.50;99.90
43862;DHT22;29510;52.140;5.034;2022-10-16T01:10:12;13.60;99.90
43862;DHT22;29510;52.140;5.034;2022-10-16T01:20:17;13.70;99.90
43862;DHT22;29510;52.140;5.034;2022-10-16T01:30:26;13.70;99.90
43862;DHT22;29510;52.140;5.034;2022-10-16T01:40:30;13.80;99.90
43862;DHT22;29510;52.140;5.034;2022-10-16T01:50:37;13.80;99.90
43862;DHT22;29510;52.140;5.034;2022-10-16T02:00:43;13.70;99.90
43862;DHT22;29510;52.140;5.034;2022-10-16T02:10:45;13.70;99.90
43862;DHT22;29510;52.140;5.034;2022-10-16T02:20:55;13.60;99.90
43862;DHT22;29510;52.140;5.034;2022-10-16T02:41:56;13.40;99.90
43862;DHT22;29510;52.140;5.034;2022-10-16T02:51:57;13.30;99.90
43862;DHT22;29510;52.140;5.034;2022-10-16T03:01:58;13.40;99.90
43862;DHT22;29510;52.140;5.034;2022-10-16T03:11:59;13.40;99.90
43862;DHT22;29510;52.140;5.034;2022-10-16T03:22:00;13.30;99.90
43862;DHT22;29510;52.140;5.034;2022-10-16T03:32:01;13.30;99.90
43862;DHT22;29510;52.140;5.034;2022-10-16T03:42:03;13.20;99.90
43862;DHT22;29510;52.140;5.034;2022-10-16T03:52:04;13.30;99.90
43862;DHT22;29510;52.140;5.034;2022-10-16T04:02:05;13.30;99.90
43862;DHT22;29510;52.140;5.034;2022-10-16T04:12:06;13.30;99.90
43862;DHT22;29510;52.140;5.034;2022-10-16T04:22:07;13.40;99.90
43862;DHT22;29510;52.140;5.034;2022-10-16T04:32:08;13.40;99.90
43862;DHT22;29510;52.140;5.034;2022-10-16T04:42:10;13.30;99.90
43862;DHT22;29510;52.140;5.034;2022-10-16T04:52:11;13.20;99.90
43862;DHT22;29510;52.140;5.034;2022-10-16T05:02:12;13.00;99.90
43862;DHT22;29510;52.140;5.034;2022-10-16T05:12:13;13.10;99.90
43862;DHT22;29510;52.140;5.034;2022-10-16T05:22:14;13.00;99.90
43862;DHT22;29510;52.140;5.034;2022-10-16T05:32:16;13.00;99.90
43862;DHT22;29510;52.140;5.034;2022-10-16T05:42:17;13.00;99.90
43862;DHT22;29510;52.140;5.034;2022-10-16T05:52:18;13.00;99.90
43862;DHT22;29510;52.140;5.034;2022-10-16T06:02:19;13.00;99.90
43862;DHT22;29510;52.140;5.034;2022-10-16T06:12:21;12.90;99.90
43862;DHT22;29510;52.140;5.034;2022-10-16T06:22:22;12.90;99.90
43862;DHT22;29510;52.140;5.034;2022-10-16T06:32:23;12.70;99.90
43862;DHT22;29510;52.140;5.034;2022-10-16T06:42:24;12.60;99.90
43862;DHT22;29510;52.140;5.034;2022-10-16T06:52:27;12.70;99.90
43862;DHT22;29510;52.140;5.034;2022-10-16T07:02:28;12.80;99.90
43862;DHT22;29510;52.140;5.034;2022-10-16T07:12:29;12.90;99.90
43862;DHT22;29510;52.140;5.034;2022-10-16T07:22:31;13.10;99.90
43862;DHT22;29510;52.140;5.034;2022-10-16T07:32:32;13.10;99.90
43862;DHT22;29510;52.140;5.034;2022-10-16T07:42:33;13.30;99.90
43862;DHT22;29510;52.140;5.034;2022-10-16T07:52:34;13.30;99.90
43862;DHT22;29510;52.140;5.034;2022-10-16T08:02:35;13.60;99.90
43862;DHT22;29510;52.140;5.034;2022-10-16T08:12:36;13.80;99.90
43862;DHT22;29510;52.140;5.034;2022-10-16T08:22:37;14.00;99.90
43862;DHT22;29510;52.140;5.034;2022-10-16T08:32:38;14.20;99.90
43862;DHT22;29510;52.140;5.034;2022-10-16T08:42:55;14.50;99.90
43862;DHT22;29510;52.140;5.034;2022-10-16T08:53:00;14.70;99.90
43862;DHT22;29510;52.140;5.034;2022-10-16T09:03:41;15.00;99.90
43862;DHT22;29510;52.140;5.034;2022-10-16T09:13:52;15.00;99.90
43862;DHT22;29510;52.140;5.034;2022-10-16T09:23:58;15.10;99.90
43862;DHT22;29510;52.140;5.034;2022-10-16T09:34:02;15.10;99.90
43862;DHT22;29510;52.140;5.034;2022-10-16T09:44:28;15.20;99.90
43862;DHT22;29510;52.140;5.034;2022-10-16T09:54:29;15.30;99.90
43862;DHT22;29510;52.140;5.034;2022-10-16T10:04:40;15.60;99.90
43862;DHT22;29510;52.140;5.034;2022-10-16T10:35:40;16.40;99.90
43862;DHT22;29510;52.140;5.034;2022-10-16T10:45:48;16.70;99.90
43862;DHT22;29510;52.140;5.034;2022-10-16T10:56:14;17.00;99.90
43862;DHT22;29510;52.140;5.034;2022-10-16T11:06:20;17.70;99.90
43862;DHT22;29510;52.140;5.034;2022-10-16T11:16:32;18.20;99.90
43862;DHT22;29510;52.140;5.034;2022-10-16T11:26:39;18.60;99.90
43862;DHT22;29510;52.140;5.034;2022-10-16T11:36:47;18.40;99.90
43862;DHT22;29510;52.140;5.034;2022-10-16T11:47:26;19.00;99.90
43862;DHT22;29510;52.140;5.034;2022-10-16T11:57:35;19.70;99.90
43862;DHT22;29510;52.140;5.034;2022-10-16T12:07:46;19.60;99.90
43862;DHT22;29510;52.140;5.034;2022-10-16T12:17:49;19.80;99.90
43862;DHT22;29510;52.140;5.034;2022-10-16T12:27:56;20.10;99.90
43862;DHT22;29510;52.140;5.034;2022-10-16T12:48:28;20.10;99.90
43862;DHT22;29510;52.140;5.034;2022-10-16T13:09:14;19.60;99.90
43862;DHT22;29510;52.140;5.034;2022-10-16T13:29:44;19.30;99.90
43862;DHT22;29510;52.140;5.034;2022-10-16T13:39:45;19.20;99.90
43862;DHT22;29510;52.140;5.034;2022-10-16T14:00:17;18.10;99.90
43862;DHT22;29510;52.140;5.034;2022-10-16T14:10:23;18.30;99.90
43862;DHT22;29510;52.140;5.034;2022-10-16T14:20:28;18.20;99.90
43862;DHT22;29510;52.140;5.034;2022-10-16T14:30:32;17.90;99.90
43862;DHT22;29510;52.140;5.034;2022-10-16T14:40:35;17.70;99.90
43862;DHT22;29510;52.140;5.034;2022-10-16T14:50:37;17.70;99.90
43862;DHT22;29510;52.140;5.034;2022-10-16T15:00:38;17.60;99.90
43862;DHT22;29510;52.140;5.034;2022-10-16T15:10:41;17.50;99.90
43862;DHT22;29510;52.140;5.034;2022-10-16T15:20:43;17.50;99.90
43862;DHT22;29510;52.140;5.034;2022-10-16T15:30:45;17.50;99.90
43862;DHT22;29510;52.140;5.034;2022-10-16T15:40:47;17.30;99.90
43862;DHT22;29510;52.140;5.034;2022-10-16T15:50:48;17.10;99.90
43862;DHT22;29510;52.140;5.034;2022-10-16T16:00:57;16.70;99.90
43862;DHT22;29510;52.140;5.034;2022-10-16T16:11:12;16.50;99.90
43862;DHT22;29510;52.140;5.034;2022-10-16T16:21:14;16.10;99.90
43862;DHT22;29510;52.140;5.034;2022-10-16T16:31:15;15.90;99.90
43862;DHT22;29510;52.140;5.034;2022-10-16T16:41:22;15.60;99.90
43862;DHT22;29510;52.140;5.034;2022-10-16T16:51:24;15.60;99.90
43862;DHT22;29510;52.140;5.034;2022-10-16T17:01:26;15.60;99.90
43862;DHT22;29510;52.140;5.034;2022-10-16T17:11:27;15.20;99.90
43862;DHT22;29510;52.140;5.034;2022-10-16T17:21:28;15.00;99.90
43862;DHT22;29510;52.140;5.034;2022-10-16T17:31:35;15.00;99.90
43862;DHT22;29510;52.140;5.034;2022-10-16T17:41:36;15.00;99.90
43862;DHT22;29510;52.140;5.034;2022-10-16T17:51:37;14.80;99.90
43862;DHT22;29510;52.140;5.034;2022-10-16T18:01:39;14.90;99.90
43862;DHT22;29510;52.140;5.034;2022-10-16T18:11:41;14.80;99.90
43862;DHT22;29510;52.140;5.034;2022-10-16T18:21:42;14.80;99.90
43862;DHT22;29510;52.140;5.034;2022-10-16T18:31:43;14.80;99.90
43862;DHT22;29510;52.140;5.034;2022-10-16T18:41:44;14.80;99.90
43862;DHT22;29510;52.140;5.034;2022-10-16T18:51:45;14.80;99.90
43862;DHT22;29510;52.140;5.034;2022-10-16T19:01:48;14.80;99.90
43862;DHT22;29510;52.140;5.034;2022-10-16T19:11:50;14.80;99.90
43862;DHT22;29510;52.140;5.034;2022-10-16T19:21:51;14.70;99.90
43862;DHT22;29510;52.140;5.034;2022-10-16T19:31:58;14.60;99.90
43862;DHT22;29510;52.140;5.034;2022-10-16T19:42:01;14.50;99.90
43862;DHT22;29510;52.140;5.034;2022-10-16T19:52:02;14.40;99.90
43862;DHT22;29510;52.140;5.034;2022-10-16T20:02:03;14.50;99.90
43862;DHT22;29510;52.140;5.034;2022-10-16T20:12:04;14.30;99.90
43862;DHT22;29510;52.140;5.034;2022-10-16T20:22:05;14.20;99.90
43862;DHT22;29510;52.140;5.034;2022-10-16T20:32:06;14.00;99.90
43862;DHT22;29510;52.140;5.034;2022-10-16T20:42:07;14.00;99.90
43862;DHT22;29510;52.140;5.034;2022-10-16T20:52:08;14.10;99.90
43862;DHT22;29510;52.140;5.034;2022-10-16T21:02:09;14.30;99.90
43862;DHT22;29510;52.140;5.034;2022-10-16T21:12:11;14.40;99.90
43862;DHT22;29510;52.140;5.034;2022-10-16T21:22:12;14.50;99.90
43862;DHT22;29510;52.140;5.034;2022-10-16T21:32:13;14.50;99.90
43862;DHT22;29510;52.140;5.034;2022-10-16T21:42:14;14.60;99.90
43862;DHT22;29510;52.140;5.034;2022-10-16T21:52:15;14.70;99.90
43862;DHT22;29510;52.140;5.034;2022-10-16T22:02:16;14.70;99.90
43862;DHT22;29510;52.140;5.034;2022-10-16T22:12:17;14.80;99.90
43862;DHT22;29510;52.140;5.034;2022-10-16T22:22:19;14.90;99.90
43862;DHT22;29510;52.140;5.034;2022-10-16T22:32:20;14.90;99.90
43862;DHT22;29510;52.140;5.034;2022-10-16T22:42:21;15.10;99.90
43862;DHT22;29510;52.140;5.034;2022-10-16T22:52:22;15.10;99.90
43862;DHT22;29510;52.140;5.034;2022-10-16T23:02:23;15.20;99.90
43862;DHT22;29510;52.140;5.034;2022-10-16T23:12:24;15.20;99.90
43862;DHT22;29510;52.140;5.034;2022-10-16T23:22:25;15.10;99.90
43862;DHT22;29510;52.140;5.034;2022-10-16T23:32:27;15.00;99.90
43862;DHT22;29510;52.140;5.034;2022-10-16T23:42:27;15.00;99.90
43862;DHT22;29510;52.140;5.034;2022-10-16T23:52:28;14.90;99.90
